createdAt,value
2018-10-09T00:02:17.938Z,242.37
2018-10-09T00:04:47.226Z,250.80
2018-10-09T00:07:16.440Z,276.87
2018-10-09T00:09:45.706Z,245.97
2018-10-09T00:12:15.050Z,252.57
2018-10-09T00:14:45.909Z,228.10
2018-10-09T00:17:15.150Z,251.07
2018-10-09T00:19:44.377Z,242.10
2018-10-09T00:22:13.733Z,228.33
2018-10-09T00:24:43.093Z,242.30
2018-10-09T00:27:12.348Z,261.20
2018-10-09T00:29:41.715Z,224.60
2018-10-09T00:32:10.958Z,239.10
2018-10-09T00:34:40.358Z,244.50
2018-10-09T00:37:09.755Z,251.20
2018-10-09T00:39:38.986Z,239.90
2018-10-09T00:42:07.809Z,236.17
2018-10-09T00:44:36.994Z,235.80
2018-10-09T00:47:06.262Z,258.13
2018-10-09T00:49:35.735Z,210.57
2018-10-09T00:52:04.906Z,252.40
2018-10-09T00:54:34.087Z,247.90
2018-10-09T00:57:03.356Z,281.17
2018-10-09T00:59:32.535Z,289.60
2018-10-09T01:02:01.681Z,232.30
2018-10-09T01:04:30.976Z,274.00
2018-10-09T01:06:59.866Z,282.57
2018-10-09T01:09:29.029Z,271.47
2018-10-09T01:11:58.205Z,280.93
2018-10-09T01:14:27.365Z,283.97
2018-10-09T01:16:56.507Z,248.50
2018-10-09T01:19:25.774Z,262.87
2018-10-09T01:21:54.913Z,290.53
2018-10-09T01:24:24.061Z,275.97
2018-10-09T01:26:53.194Z,260.60
2018-10-09T01:29:22.330Z,308.30
2018-10-09T01:31:51.494Z,299.77
2018-10-09T01:34:20.772Z,349.13
2018-10-09T01:36:49.929Z,359.87
2018-10-09T01:39:19.227Z,310.90
2018-10-09T01:41:48.365Z,283.77
2018-10-09T01:44:17.983Z,321.33
2018-10-09T01:46:47.205Z,301.73
2018-10-09T01:49:16.481Z,280.73
2018-10-09T01:51:45.797Z,304.03
2018-10-09T01:54:15.007Z,266.30
2018-10-09T01:56:44.406Z,284.97
2018-10-09T01:59:13.665Z,246.77
2018-10-09T02:01:43.282Z,255.87
2018-10-09T02:04:18.293Z,263.67
2018-10-09T02:06:47.539Z,233.97
2018-10-09T02:09:16.781Z,258.87
2018-10-09T02:11:45.962Z,263.53
2018-10-09T02:14:15.453Z,255.53
2018-10-09T02:16:44.623Z,260.83
2018-10-09T02:19:15.330Z,265.00
2018-10-09T02:21:46.594Z,277.70
2018-10-09T02:24:16.098Z,238.83
2018-10-09T02:26:44.870Z,244.70
2018-10-09T02:29:14.058Z,280.53
2018-10-09T02:31:43.327Z,284.93
2018-10-09T02:34:12.485Z,268.93
2018-10-09T02:36:41.629Z,293.30
2018-10-09T02:39:12.042Z,243.97
2018-10-09T02:41:41.194Z,258.03
2018-10-09T02:44:10.838Z,245.83
2018-10-09T02:46:40.006Z,282.97
2018-10-09T02:49:09.209Z,302.13
2018-10-09T02:51:38.350Z,296.57
2018-10-09T02:54:07.771Z,265.67
2018-10-09T02:56:37.457Z,291.90
2018-10-09T02:59:06.949Z,359.80
2018-10-09T03:01:36.106Z,294.43
2018-10-09T03:04:05.397Z,344.80
2018-10-09T03:06:34.801Z,321.13
2018-10-09T03:09:05.286Z,352.97
2018-10-09T03:11:34.495Z,324.33
2018-10-09T03:14:03.962Z,319.13
2018-10-09T03:16:33.115Z,323.40
2018-10-09T03:19:02.626Z,309.97
2018-10-09T03:21:31.845Z,281.67
2018-10-09T03:24:01.371Z,283.47
2018-10-09T03:26:30.573Z,316.40
2018-10-09T03:28:59.689Z,349.40
2018-10-09T03:31:28.871Z,284.70
2018-10-09T03:33:58.093Z,282.27
2018-10-09T03:36:27.199Z,263.33
2018-10-09T03:38:56.353Z,277.43
2018-10-09T03:41:25.900Z,280.63
2018-10-09T03:43:55.241Z,330.47
2018-10-09T03:46:24.398Z,264.10
2018-10-09T03:48:53.538Z,311.87
2018-10-09T03:51:23.038Z,258.07
2018-10-09T03:53:52.173Z,252.30
2018-10-09T03:56:21.495Z,243.30
2018-10-09T03:58:50.605Z,290.17
2018-10-09T04:01:23.830Z,249.03
2018-10-09T04:03:52.982Z,257.73
2018-10-09T04:06:22.123Z,283.50
2018-10-09T04:08:51.481Z,278.97
2018-10-09T04:11:20.877Z,280.80
2018-10-09T04:13:50.197Z,289.20
2018-10-09T04:16:20.125Z,301.80
2018-10-09T04:18:49.993Z,321.30
2018-10-09T04:21:20.794Z,355.40
2018-10-09T04:23:50.397Z,310.43
2018-10-09T04:26:19.759Z,332.47
2018-10-09T04:28:49.077Z,395.73
2018-10-09T04:31:18.202Z,378.30
2018-10-09T04:33:47.333Z,382.57
2018-10-09T04:36:16.510Z,395.50
2018-10-09T04:38:45.685Z,513.50
2018-10-09T04:41:14.848Z,371.47
2018-10-09T04:43:44.578Z,366.27
2018-10-09T04:46:13.709Z,311.97
2018-10-09T04:48:42.841Z,338.03
2018-10-09T04:51:12.037Z,330.00
2018-10-09T04:53:41.302Z,348.33
2018-10-09T04:56:10.426Z,294.20
2018-10-09T04:58:39.559Z,255.87
2018-10-09T05:01:08.690Z,276.20
2018-10-09T05:03:38.091Z,273.50
2018-10-09T05:06:07.519Z,264.30
2018-10-09T05:08:37.029Z,294.10
2018-10-09T05:11:06.357Z,262.20
2018-10-09T05:13:35.720Z,235.57
2018-10-09T05:16:08.065Z,260.17
2018-10-09T05:18:37.511Z,213.23
2018-10-09T05:21:06.894Z,233.17
2018-10-09T05:23:37.517Z,208.30
2018-10-09T05:26:07.061Z,212.30
2018-10-09T05:28:36.980Z,216.77
2018-10-09T05:31:06.108Z,194.10
2018-10-09T05:33:35.254Z,200.77
2018-10-09T05:36:05.013Z,198.27
2018-10-09T05:38:34.121Z,167.93
2018-10-09T05:41:03.287Z,163.27
2018-10-09T05:43:32.386Z,161.40
2018-10-09T05:46:01.490Z,157.13
2018-10-09T05:48:32.255Z,124.30
2018-10-09T05:51:02.050Z,122.87
2018-10-09T05:53:31.055Z,114.93
2018-10-09T05:56:00.249Z,101.33
2018-10-09T05:58:29.401Z,123.63
2018-10-09T06:00:58.516Z,111.40
2018-10-09T06:03:27.930Z,95.20
2018-10-09T06:05:57.151Z,103.20
2018-10-09T06:08:26.345Z,99.60
2018-10-09T06:10:55.714Z,81.00
2018-10-09T06:13:25.638Z,91.70
2018-10-09T06:15:54.634Z,89.10
2018-10-09T06:18:24.644Z,79.70
2018-10-09T06:20:54.045Z,75.17
2018-10-09T06:23:22.925Z,84.07
2018-10-09T06:25:52.146Z,68.30
2018-10-09T06:28:21.312Z,78.53
2018-10-09T06:30:50.458Z,63.17
2018-10-09T06:33:19.562Z,69.40
2018-10-09T06:35:48.758Z,67.87
2018-10-09T06:38:17.889Z,62.20
2018-10-09T06:40:47.264Z,64.30
2018-10-09T06:43:16.301Z,73.33
2018-10-09T06:45:45.427Z,75.10
2018-10-09T06:48:14.533Z,64.93
2018-10-09T06:50:43.614Z,60.47
2018-10-09T06:53:12.990Z,65.00
2018-10-09T06:55:41.790Z,65.53
2018-10-09T06:58:11.231Z,58.17
2018-10-09T07:00:39.997Z,68.00
2018-10-09T07:03:09.363Z,56.57
2018-10-09T07:05:38.433Z,59.50
2018-10-09T07:08:07.654Z,62.83
2018-10-09T07:10:36.833Z,73.87
2018-10-09T07:13:06.890Z,54.00
2018-10-09T07:15:36.213Z,63.07
2018-10-09T07:18:13.242Z,61.50
2018-10-09T07:20:42.387Z,61.00
2018-10-09T07:23:11.501Z,60.50
2018-10-09T07:25:40.626Z,54.80
2018-10-09T07:28:09.794Z,61.43
2018-10-09T07:30:38.893Z,58.07
2018-10-09T07:33:08.013Z,60.10
2018-10-09T07:35:37.738Z,57.30
2018-10-09T07:38:07.014Z,47.73
2018-10-09T07:40:36.121Z,62.23
2018-10-09T07:43:05.299Z,58.00
2018-10-09T07:45:34.406Z,50.97
2018-10-09T07:48:03.534Z,58.20
2018-10-09T07:50:32.898Z,55.30
2018-10-09T07:53:02.181Z,57.87
2018-10-09T07:55:31.662Z,59.80
2018-10-09T07:58:01.159Z,55.70
2018-10-09T08:00:30.357Z,61.10
2018-10-09T08:02:59.640Z,55.20
2018-10-09T08:05:28.369Z,52.60
2018-10-09T08:07:57.673Z,53.33
2018-10-09T08:10:27.673Z,57.67
2018-10-09T08:12:56.907Z,53.30
2018-10-09T08:15:26.075Z,53.00
2018-10-09T08:17:55.278Z,60.57
2018-10-09T08:20:24.483Z,48.67
2018-10-09T08:22:53.703Z,50.87
2018-10-09T08:25:22.762Z,57.93
2018-10-09T08:27:52.074Z,52.10
2018-10-09T08:30:21.970Z,48.20
2018-10-09T08:32:51.354Z,49.73
2018-10-09T08:35:20.489Z,52.07
2018-10-09T08:37:50.734Z,57.60
2018-10-09T08:40:19.947Z,52.90
2018-10-09T08:42:49.053Z,57.50
2018-10-09T08:45:18.183Z,50.40
2018-10-09T08:47:47.534Z,49.83
2018-10-09T08:50:16.713Z,52.70
2018-10-09T08:52:45.893Z,63.07
2018-10-09T08:55:15.058Z,56.23
2018-10-09T08:57:44.662Z,61.20
2018-10-09T09:00:13.785Z,52.47
2018-10-09T09:02:42.955Z,54.57
2018-10-09T09:05:12.082Z,52.73
2018-10-09T09:07:41.338Z,55.67
2018-10-09T09:10:10.489Z,52.60
2018-10-09T09:12:39.625Z,54.80
2018-10-09T09:15:09.504Z,50.30
2018-10-09T09:17:39.209Z,49.33
2018-10-09T09:20:08.339Z,50.57
2018-10-09T09:22:37.438Z,55.97
2018-10-09T09:25:06.669Z,53.97
2018-10-09T09:27:35.850Z,54.97
2018-10-09T09:30:05.414Z,52.13
2018-10-09T09:32:34.571Z,60.43
2018-10-09T09:35:03.702Z,55.37
2018-10-09T09:37:32.878Z,54.97
2018-10-09T09:40:02.042Z,52.70
2018-10-09T09:42:31.207Z,59.90
2018-10-09T09:45:00.547Z,56.60
2018-10-09T09:47:29.649Z,54.83
2018-10-09T09:49:59.022Z,50.30
2018-10-09T09:52:28.173Z,56.30
2018-10-09T09:54:57.317Z,51.67
2018-10-09T09:57:26.994Z,55.50
2018-10-09T09:59:56.365Z,46.83
2018-10-09T10:02:25.626Z,49.23
2018-10-09T10:04:55.231Z,45.50
2018-10-09T10:07:24.665Z,49.47
2018-10-09T10:09:54.274Z,51.03
2018-10-09T10:12:23.390Z,48.00
2018-10-09T10:14:53.246Z,50.47
2018-10-09T10:17:22.412Z,45.17
2018-10-09T10:19:51.525Z,50.10
2018-10-09T10:22:21.354Z,51.53
2018-10-09T10:24:50.570Z,49.33
2018-10-09T10:27:19.697Z,50.00
2018-10-09T10:29:49.381Z,47.37
2018-10-09T10:32:18.563Z,52.20
2018-10-09T10:34:47.691Z,52.33
2018-10-09T10:37:17.000Z,53.83
2018-10-09T10:39:46.191Z,47.07
2018-10-09T10:42:15.408Z,41.13
2018-10-09T10:44:45.064Z,45.23
2018-10-09T10:47:14.255Z,38.13
2018-10-09T10:49:43.387Z,40.73
2018-10-09T10:52:12.450Z,37.00
2018-10-09T10:54:42.178Z,35.90
2018-10-09T10:57:11.462Z,34.43
2018-10-09T10:59:41.114Z,33.73
2018-10-09T11:02:10.621Z,32.17
2018-10-09T11:04:40.606Z,32.63
2018-10-09T11:07:10.509Z,37.43
2018-10-09T11:09:40.282Z,36.73
2018-10-09T11:12:11.982Z,37.37
2018-10-09T11:14:41.941Z,40.73
2018-10-09T11:17:11.833Z,43.30
2018-10-09T11:19:44.624Z,34.50
2018-10-09T11:22:13.497Z,33.90
2018-10-09T11:24:43.397Z,36.23
2018-10-09T11:27:13.547Z,39.73
2018-10-09T11:29:42.441Z,45.00
2018-10-09T11:32:11.971Z,41.33
2018-10-09T11:34:42.778Z,44.97
2018-10-09T11:37:12.625Z,39.17
2018-10-09T11:39:41.966Z,38.87
2018-10-09T11:42:11.102Z,37.37
2018-10-09T11:44:40.399Z,44.47
2018-10-09T11:47:09.954Z,38.60
2018-10-09T11:49:39.898Z,39.23
2018-10-09T11:52:09.639Z,37.73
2018-10-09T11:54:39.317Z,34.40
2018-10-09T11:57:08.453Z,36.83
2018-10-09T11:59:37.734Z,36.23
2018-10-09T12:02:06.923Z,37.17
2018-10-09T12:04:36.541Z,36.30
2018-10-09T12:07:05.678Z,32.40
2018-10-09T12:09:34.986Z,30.10
2018-10-09T12:12:04.104Z,28.90
2018-10-09T12:14:33.295Z,33.17
2018-10-09T12:17:01.991Z,30.67
2018-10-09T12:19:31.125Z,31.47
2018-10-09T12:22:00.866Z,31.83
2018-10-09T12:24:30.909Z,28.07
2018-10-09T12:27:00.382Z,29.43
2018-10-09T12:29:29.450Z,34.50
2018-10-09T12:31:58.566Z,30.77
2018-10-09T12:34:27.714Z,28.40
2018-10-09T12:36:58.478Z,29.20
2018-10-09T12:39:28.258Z,36.33
2018-10-09T12:41:56.933Z,26.60
2018-10-09T12:44:26.741Z,26.57
2018-10-09T12:46:55.833Z,26.73
2018-10-09T12:49:24.935Z,33.83
2018-10-09T12:51:54.038Z,28.10
2018-10-09T12:54:23.121Z,23.87
2018-10-09T12:56:52.250Z,24.50
2018-10-09T12:59:21.390Z,26.00
2018-10-09T13:01:50.504Z,25.40
2018-10-09T13:04:19.599Z,28.30
2018-10-09T13:06:48.752Z,26.60
2018-10-09T13:09:18.147Z,25.73
2018-10-09T13:11:47.225Z,25.40
2018-10-09T13:14:23.051Z,27.63
2018-10-09T13:16:52.805Z,30.57
2018-10-09T13:19:21.986Z,27.27
2018-10-09T13:21:51.253Z,28.00
2018-10-09T13:24:20.853Z,27.83
2018-10-09T13:26:50.047Z,24.60
2018-10-09T13:29:19.391Z,25.60
2018-10-09T13:31:49.850Z,24.17
2018-10-09T13:34:19.646Z,25.47
2018-10-09T13:36:49.353Z,28.10
2018-10-09T13:39:18.562Z,26.07
2018-10-09T13:41:47.671Z,32.00
2018-10-09T13:44:16.835Z,32.73
2018-10-09T13:46:45.021Z,26.57
2018-10-09T13:49:14.319Z,24.80
2018-10-09T13:51:43.462Z,28.47
2018-10-09T13:54:12.690Z,27.17
2018-10-09T13:56:42.768Z,25.20
2018-10-09T13:59:11.893Z,27.17
2018-10-09T14:01:41.021Z,28.17
2018-10-09T14:04:10.168Z,25.80
2018-10-09T14:06:39.642Z,24.57
2018-10-09T14:09:10.877Z,24.97
2018-10-09T14:11:40.227Z,24.23
2018-10-09T14:14:09.751Z,29.73
2018-10-09T14:16:40.217Z,23.67
2018-10-09T14:19:10.074Z,25.23
2018-10-09T14:21:39.206Z,28.17
2018-10-09T14:24:08.337Z,25.63
2018-10-09T14:26:38.107Z,26.67
2018-10-09T14:29:07.205Z,25.50
2018-10-09T14:31:36.325Z,22.03
2018-10-09T14:34:05.918Z,27.33
2018-10-09T14:36:35.824Z,23.40
2018-10-09T14:39:10.091Z,24.57
2018-10-09T14:41:39.218Z,22.63
2018-10-09T14:44:08.895Z,21.97
2018-10-09T14:46:38.382Z,22.40
2018-10-09T14:49:07.916Z,19.97
2018-10-09T14:51:37.432Z,19.33
2018-10-09T14:54:07.355Z,20.03
2018-10-09T14:56:36.882Z,19.50
2018-10-09T14:59:06.551Z,20.73
2018-10-09T15:01:35.878Z,14.13
2018-10-09T15:04:07.055Z,30.30
2018-10-09T15:06:36.543Z,14.33
2018-10-09T15:09:09.975Z,20.80
2018-10-09T15:11:39.354Z,17.80
2018-10-09T15:14:08.590Z,16.87
2018-10-09T15:16:37.995Z,17.90
2018-10-09T15:19:08.081Z,17.90
2018-10-09T15:21:37.150Z,20.27
2018-10-09T15:24:06.958Z,21.70
2018-10-09T15:26:36.717Z,21.97
2018-10-09T15:29:06.661Z,17.73
2018-10-09T15:31:35.845Z,20.57
2018-10-09T15:34:05.598Z,19.47
2018-10-09T15:36:35.421Z,23.47
2018-10-09T15:39:09.976Z,23.33
2018-10-09T15:41:39.512Z,20.97
2018-10-09T15:44:09.369Z,21.53
2018-10-09T15:46:38.696Z,19.00
2018-10-09T15:49:08.521Z,19.17
2018-10-09T15:51:38.602Z,21.47
2018-10-09T15:54:07.724Z,19.17
2018-10-09T15:56:37.027Z,22.10
2018-10-09T15:59:06.729Z,21.80
2018-10-09T16:01:35.938Z,22.20
2018-10-09T16:04:05.105Z,24.90
2018-10-09T16:06:34.447Z,21.40
2018-10-09T16:09:05.873Z,22.13
2018-10-09T16:11:39.279Z,25.40
2018-10-09T16:14:09.194Z,24.53
2018-10-09T16:16:38.750Z,28.23
2018-10-09T16:19:11.069Z,26.67
2018-10-09T16:21:40.562Z,25.57
2018-10-09T16:24:10.819Z,26.70
2018-10-09T16:26:40.205Z,32.67
2018-10-09T16:29:09.402Z,36.63
2018-10-09T16:31:38.550Z,31.53
2018-10-09T16:34:07.675Z,31.30
2018-10-09T16:36:38.155Z,32.70
2018-10-09T16:39:10.742Z,34.00
2018-10-09T16:41:40.217Z,35.00
2018-10-09T16:44:10.095Z,34.80
2018-10-09T16:46:39.242Z,36.00
2018-10-09T16:49:08.450Z,49.47
2018-10-09T16:51:37.607Z,41.10
2018-10-09T16:54:07.061Z,39.20
2018-10-09T16:56:36.790Z,40.87
2018-10-09T16:59:05.939Z,41.13
2018-10-09T17:01:35.622Z,43.57
2018-10-09T17:04:05.261Z,49.13
2018-10-09T17:06:35.185Z,41.10
2018-10-09T17:09:08.315Z,38.17
2018-10-09T17:11:37.987Z,52.80
2018-10-09T17:14:06.961Z,50.80
2018-10-09T17:16:36.290Z,60.67
2018-10-09T17:19:04.932Z,49.60
2018-10-09T17:21:34.138Z,52.70
2018-10-09T17:24:03.949Z,47.43
2018-10-09T17:26:33.577Z,47.90
2018-10-09T17:29:02.597Z,56.07
2018-10-09T17:31:31.722Z,53.60
2018-10-09T17:34:02.530Z,59.37
2018-10-09T17:36:37.309Z,47.60
2018-10-09T17:39:10.259Z,62.23
2018-10-09T17:41:39.993Z,49.27
2018-10-09T17:44:09.330Z,55.97
2018-10-09T17:46:39.252Z,62.43
2018-10-09T17:49:08.485Z,52.13
2018-10-09T17:51:37.871Z,54.73
2018-10-09T17:54:07.030Z,53.87
2018-10-09T17:56:36.586Z,60.07
2018-10-09T17:59:05.703Z,55.20
2018-10-09T18:01:36.718Z,56.27
2018-10-09T18:04:05.847Z,61.50
2018-10-09T18:06:35.451Z,70.73
2018-10-09T18:09:08.256Z,61.13
2018-10-09T18:11:37.468Z,68.43
2018-10-09T18:14:06.782Z,62.87
2018-10-09T18:16:35.902Z,68.80
2018-10-09T18:19:04.746Z,57.50
2018-10-09T18:21:34.745Z,59.20
2018-10-09T18:24:04.491Z,60.90
2018-10-09T18:26:33.590Z,58.63
2018-10-09T18:29:02.772Z,63.57
2018-10-09T18:31:32.098Z,64.50
2018-10-09T18:34:02.067Z,56.00
2018-10-09T18:36:31.175Z,67.10
2018-10-09T18:39:01.059Z,66.40
2018-10-09T18:41:30.284Z,55.47
2018-10-09T18:43:59.344Z,58.90
2018-10-09T18:46:28.420Z,61.63
2018-10-09T18:48:57.606Z,75.33
2018-10-09T18:51:26.832Z,60.37
2018-10-09T18:53:55.908Z,63.50
2018-10-09T18:56:27.708Z,70.27
2018-10-09T18:58:57.113Z,78.33
2018-10-09T19:01:26.422Z,68.60
2018-10-09T19:03:55.566Z,72.90
2018-10-09T19:06:24.718Z,69.20
2018-10-09T19:08:53.900Z,63.97
2018-10-09T19:11:27.239Z,80.57
2018-10-09T19:13:57.238Z,71.67
2018-10-09T19:16:26.713Z,74.63
2018-10-09T19:18:55.857Z,67.93
2018-10-09T19:21:24.565Z,79.47
2018-10-09T19:23:53.802Z,72.33
2018-10-09T19:26:22.962Z,81.30
2018-10-09T19:28:52.058Z,78.30
2018-10-09T19:31:21.165Z,93.43
2018-10-09T19:33:50.265Z,79.70
2018-10-09T19:36:19.413Z,80.57
2018-10-09T19:38:48.571Z,83.13
2018-10-09T19:41:17.752Z,76.23
2018-10-09T19:43:46.910Z,67.13
2018-10-09T19:46:16.047Z,78.83
2018-10-09T19:48:45.154Z,68.07
2018-10-09T19:51:14.340Z,80.80
2018-10-09T19:53:43.714Z,91.63
2018-10-09T19:56:12.870Z,86.33
2018-10-09T19:58:41.965Z,74.10
2018-10-09T20:01:11.096Z,90.67
2018-10-09T20:03:39.890Z,81.57
2018-10-09T20:06:09.246Z,87.63
2018-10-09T20:08:38.431Z,88.07
2018-10-09T20:11:09.632Z,81.67
2018-10-09T20:13:38.775Z,80.30
2018-10-09T20:16:08.844Z,84.97
2018-10-09T20:18:38.126Z,86.10
2018-10-09T20:21:08.353Z,97.83
2018-10-09T20:23:37.730Z,110.37
2018-10-09T20:26:06.730Z,114.77
2018-10-09T20:28:36.033Z,122.50
2018-10-09T20:31:05.192Z,108.57
2018-10-09T20:33:34.345Z,102.13
2018-10-09T20:36:04.007Z,101.53
2018-10-09T20:38:33.370Z,109.63
2018-10-09T20:41:03.189Z,109.07
2018-10-09T20:43:32.464Z,106.43
2018-10-09T20:46:01.706Z,124.53
2018-10-09T20:48:31.857Z,135.80
2018-10-09T20:51:00.901Z,124.30
2018-10-09T20:53:30.003Z,102.90
2018-10-09T20:55:59.122Z,115.43
2018-10-09T20:58:28.295Z,114.83
2018-10-09T21:00:57.438Z,101.07
2018-10-09T21:03:27.353Z,108.83
2018-10-09T21:05:56.793Z,109.30
2018-10-09T21:08:25.960Z,119.13
2018-10-09T21:10:55.157Z,122.37
2018-10-09T21:13:24.870Z,109.37
2018-10-09T21:15:54.022Z,105.40
2018-10-09T21:18:23.675Z,114.27
2018-10-09T21:20:53.115Z,111.27
2018-10-09T21:23:22.453Z,125.20
2018-10-09T21:25:51.252Z,105.47
2018-10-09T21:28:21.425Z,106.53
2018-10-09T21:30:50.570Z,126.67
2018-10-09T21:33:19.749Z,107.17
2018-10-09T21:35:48.958Z,123.43
2018-10-09T21:38:18.090Z,122.10
2018-10-09T21:40:47.193Z,140.33
2018-10-09T21:43:16.905Z,121.90
2018-10-09T21:45:46.162Z,129.50
2018-10-09T21:48:15.618Z,164.87
2018-10-09T21:50:44.649Z,154.60
2018-10-09T21:53:13.758Z,164.37
2018-10-09T21:55:42.865Z,141.23
2018-10-09T21:58:11.986Z,118.57
2018-10-09T22:00:46.298Z,152.80
2018-10-09T22:03:15.425Z,144.53
2018-10-09T22:05:44.526Z,134.93
2018-10-09T22:08:13.658Z,148.07
2018-10-09T22:10:42.782Z,133.30
2018-10-09T22:13:11.912Z,156.83
2018-10-09T22:15:41.102Z,138.17
2018-10-09T22:18:10.250Z,172.03
2018-10-09T22:20:39.368Z,139.90
2018-10-09T22:23:08.534Z,163.90
2018-10-09T22:25:37.798Z,150.40
2018-10-09T22:28:07.398Z,142.73
2018-10-09T22:30:36.134Z,144.87
2018-10-09T22:33:05.287Z,126.07
2018-10-09T22:35:34.582Z,157.10
2018-10-09T22:38:03.754Z,144.30
2018-10-09T22:40:32.922Z,135.23
2018-10-09T22:43:03.802Z,184.73
2018-10-09T22:45:34.326Z,183.87
2018-10-09T22:48:03.430Z,204.60
2018-10-09T22:50:32.557Z,182.43
2018-10-09T22:53:01.682Z,212.80
2018-10-09T22:55:31.534Z,232.83
2018-10-09T22:58:00.645Z,189.80
2018-10-09T23:00:29.738Z,254.93
2018-10-09T23:02:58.846Z,242.60
2018-10-09T23:05:29.670Z,226.50
2018-10-09T23:07:59.602Z,225.73
2018-10-09T23:10:28.926Z,268.40
2018-10-09T23:12:58.425Z,278.53
2018-10-09T23:15:28.593Z,298.23
2018-10-09T23:17:58.325Z,271.57
2018-10-09T23:20:27.418Z,326.10
2018-10-09T23:22:56.531Z,296.77
2018-10-09T23:25:25.767Z,323.43
2018-10-09T23:27:54.958Z,299.80
2018-10-09T23:30:24.217Z,300.50
2018-10-09T23:32:53.434Z,290.97
2018-10-09T23:35:22.658Z,287.60
2018-10-09T23:37:51.991Z,273.27
2018-10-09T23:40:21.161Z,303.83
2018-10-09T23:42:50.926Z,292.70
2018-10-09T23:45:22.498Z,314.17
2018-10-09T23:47:55.747Z,277.20
2018-10-09T23:50:25.551Z,322.13
2018-10-09T23:52:54.633Z,289.10
2018-10-09T23:55:23.749Z,301.23
2018-10-09T23:57:52.860Z,289.43
